sensor_id;sensor_type;location;lat;lon;timestamp;P1;durP1;ratioP1;P2;durP2;ratioP2
49235;SDS011;35067;48.134;8.378;2022-12-07T00:00:50;47.47;;;8.67;;
49235;SDS011;35067;48.134;8.378;2022-12-07T00:02:50;36.40;;;8.87;;
49235;SDS011;35067;48.134;8.378;2022-12-07T00:04:51;59.53;;;9.17;;
49235;SDS011;35067;48.134;8.378;2022-12-07T00:06:52;19.33;;;6.80;;
49235;SDS011;35067;48.134;8.378;2022-12-07T00:08:53;24.90;;;6.53;;
49235;SDS011;35067;48.134;8.378;2022-12-07T00:10:53;34.70;;;9.53;;
49235;SDS011;35067;48.134;8.378;2022-12-07T00:12:54;24.47;;;6.33;;
49235;SDS011;35067;48.134;8.378;2022-12-07T00:14:55;26.73;;;7.80;;
49235;SDS011;35067;48.134;8.378;2022-12-07T00:16:55;32.23;;;7.73;;
49235;SDS011;35067;48.134;8.378;2022-12-07T00:18:56;25.80;;;7.70;;
49235;SDS011;35067;48.134;8.378;2022-12-07T00:21:04;35.60;;;8.87;;
49235;SDS011;35067;48.134;8.378;2022-12-07T00:23:06;35.90;;;8.40;;
49235;SDS011;35067;48.134;8.378;2022-12-07T00:25:07;45.20;;;10.77;;
49235;SDS011;35067;48.134;8.378;2022-12-07T00:27:08;32.40;;;8.20;;
49235;SDS011;35067;48.134;8.378;2022-12-07T00:29:14;48.80;;;10.93;;
49235;SDS011;35067;48.134;8.378;2022-12-07T00:31:19;15.23;;;6.27;;
49235;SDS011;35067;48.134;8.378;2022-12-07T00:33:31;14.93;;;6.57;;
49235;SDS011;35067;48.134;8.378;2022-12-07T00:35:33;16.33;;;6.97;;
49235;SDS011;35067;48.134;8.378;2022-12-07T00:37:33;16.00;;;7.70;;
49235;SDS011;35067;48.134;8.378;2022-12-07T00:39:34;13.77;;;7.20;;
49235;SDS011;35067;48.134;8.378;2022-12-07T00:41:34;16.13;;;6.73;;
49235;SDS011;35067;48.134;8.378;2022-12-07T00:43:35;11.17;;;5.80;;
49235;SDS011;35067;48.134;8.378;2022-12-07T00:45:36;13.60;;;6.47;;
49235;SDS011;35067;48.134;8.378;2022-12-07T00:47:36;10.60;;;6.10;;
49235;SDS011;35067;48.134;8.378;2022-12-07T00:49:37;11.00;;;6.10;;
49235;SDS011;35067;48.134;8.378;2022-12-07T00:51:38;13.33;;;5.73;;
49235;SDS011;35067;48.134;8.378;2022-12-07T00:53:39;15.33;;;7.23;;
49235;SDS011;35067;48.134;8.378;2022-12-07T00:55:40;15.20;;;7.20;;
49235;SDS011;35067;48.134;8.378;2022-12-07T00:57:41;17.87;;;6.50;;
49235;SDS011;35067;48.134;8.378;2022-12-07T00:59:42;34.00;;;9.57;;
49235;SDS011;35067;48.134;8.378;2022-12-07T01:01:42;18.80;;;7.03;;
49235;SDS011;35067;48.134;8.378;2022-12-07T01:03:43;21.33;;;7.97;;
49235;SDS011;35067;48.134;8.378;2022-12-07T01:05:50;14.37;;;7.63;;
49235;SDS011;35067;48.134;8.378;2022-12-07T01:07:53;16.80;;;7.80;;
49235;SDS011;35067;48.134;8.378;2022-12-07T01:09:54;15.30;;;7.00;;
49235;SDS011;35067;48.134;8.378;2022-12-07T01:11:54;14.23;;;6.50;;
49235;SDS011;35067;48.134;8.378;2022-12-07T01:13:56;14.63;;;6.97;;
49235;SDS011;35067;48.134;8.378;2022-12-07T01:15:59;18.37;;;7.10;;
49235;SDS011;35067;48.134;8.378;2022-12-07T01:18:02;19.27;;;7.27;;
49235;SDS011;35067;48.134;8.378;2022-12-07T01:20:03;13.63;;;5.83;;
49235;SDS011;35067;48.134;8.378;2022-12-07T01:22:05;22.10;;;7.83;;
49235;SDS011;35067;48.134;8.378;2022-12-07T01:24:07;13.43;;;6.33;;
49235;SDS011;35067;48.134;8.378;2022-12-07T01:26:10;13.10;;;6.17;;
49235;SDS011;35067;48.134;8.378;2022-12-07T01:28:15;11.73;;;6.00;;
49235;SDS011;35067;48.134;8.378;2022-12-07T01:30:15;15.10;;;7.47;;
49235;SDS011;35067;48.134;8.378;2022-12-07T01:32:16;11.47;;;6.57;;
49235;SDS011;35067;48.134;8.378;2022-12-07T01:34:17;11.90;;;6.33;;
49235;SDS011;35067;48.134;8.378;2022-12-07T01:36:21;11.10;;;5.30;;
49235;SDS011;35067;48.134;8.378;2022-12-07T01:38:36;9.97;;;5.43;;
49235;SDS011;35067;48.134;8.378;2022-12-07T01:40:37;10.80;;;5.87;;
49235;SDS011;35067;48.134;8.378;2022-12-07T01:42:37;8.73;;;5.37;;
49235;SDS011;35067;48.134;8.378;2022-12-07T01:47:36;9.27;;;5.23;;
49235;SDS011;35067;48.134;8.378;2022-12-07T01:49:38;9.87;;;5.10;;
49235;SDS011;35067;48.134;8.378;2022-12-07T01:51:44;8.60;;;4.90;;
49235;SDS011;35067;48.134;8.378;2022-12-07T01:53:47;8.63;;;5.20;;
49235;SDS011;35067;48.134;8.378;2022-12-07T01:55:49;9.23;;;4.93;;
49235;SDS011;35067;48.134;8.378;2022-12-07T01:57:52;8.63;;;4.53;;
49235;SDS011;35067;48.134;8.378;2022-12-07T01:59:54;7.37;;;4.53;;
49235;SDS011;35067;48.134;8.378;2022-12-07T02:01:56;9.00;;;5.10;;
49235;SDS011;35067;48.134;8.378;2022-12-07T02:03:57;6.83;;;4.27;;
49235;SDS011;35067;48.134;8.378;2022-12-07T02:05:58;8.13;;;5.20;;
49235;SDS011;35067;48.134;8.378;2022-12-07T02:08:00;7.17;;;4.40;;
49235;SDS011;35067;48.134;8.378;2022-12-07T02:10:15;10.03;;;5.37;;
49235;SDS011;35067;48.134;8.378;2022-12-07T02:12:20;6.57;;;4.50;;
49235;SDS011;35067;48.134;8.378;2022-12-07T02:14:23;11.73;;;4.93;;
49235;SDS011;35067;48.134;8.378;2022-12-07T02:19:14;12.00;;;5.90;;
49235;SDS011;35067;48.134;8.378;2022-12-07T02:23:40;12.23;;;5.83;;
49235;SDS011;35067;48.134;8.378;2022-12-07T02:26:18;11.80;;;6.67;;
49235;SDS011;35067;48.134;8.378;2022-12-07T02:31:05;6.83;;;3.97;;
49235;SDS011;35067;48.134;8.378;2022-12-07T02:33:19;8.97;;;4.40;;
49235;SDS011;35067;48.134;8.378;2022-12-07T02:40:00;9.07;;;5.33;;
49235;SDS011;35067;48.134;8.378;2022-12-07T02:42:36;9.73;;;5.63;;
49235;SDS011;35067;48.134;8.378;2022-12-07T02:44:47;8.83;;;5.63;;
49235;SDS011;35067;48.134;8.378;2022-12-07T02:46:53;8.53;;;5.47;;
49235;SDS011;35067;48.134;8.378;2022-12-07T02:48:57;10.37;;;5.40;;
49235;SDS011;35067;48.134;8.378;2022-12-07T02:50:59;11.60;;;5.93;;
49235;SDS011;35067;48.134;8.378;2022-12-07T02:53:00;12.40;;;6.27;;
49235;SDS011;35067;48.134;8.378;2022-12-07T02:55:01;11.00;;;6.40;;
49235;SDS011;35067;48.134;8.378;2022-12-07T02:57:25;12.30;;;6.00;;
49235;SDS011;35067;48.134;8.378;2022-12-07T03:05:13;10.47;;;5.93;;
49235;SDS011;35067;48.134;8.378;2022-12-07T03:07:36;9.63;;;5.67;;
49235;SDS011;35067;48.134;8.378;2022-12-07T03:12:36;7.40;;;4.40;;
49235;SDS011;35067;48.134;8.378;2022-12-07T03:15:10;8.07;;;4.80;;
49235;SDS011;35067;48.134;8.378;2022-12-07T03:17:18;6.80;;;3.87;;
49235;SDS011;35067;48.134;8.378;2022-12-07T03:19:25;5.23;;;3.27;;
49235;SDS011;35067;48.134;8.378;2022-12-07T03:21:29;8.47;;;3.03;;
49235;SDS011;35067;48.134;8.378;2022-12-07T03:23:34;5.47;;;2.73;;
49235;SDS011;35067;48.134;8.378;2022-12-07T03:25:41;5.10;;;2.73;;
49235;SDS011;35067;48.134;8.378;2022-12-07T03:27:57;4.90;;;3.00;;
49235;SDS011;35067;48.134;8.378;2022-12-07T03:32:14;7.70;;;3.50;;
49235;SDS011;35067;48.134;8.378;2022-12-07T03:34:27;5.07;;;2.60;;
49235;SDS011;35067;48.134;8.378;2022-12-07T03:38:56;4.30;;;2.70;;
49235;SDS011;35067;48.134;8.378;2022-12-07T03:41:11;5.00;;;2.73;;
49235;SDS011;35067;48.134;8.378;2022-12-07T03:43:19;5.30;;;3.00;;
49235;SDS011;35067;48.134;8.378;2022-12-07T03:45:21;5.97;;;3.13;;
49235;SDS011;35067;48.134;8.378;2022-12-07T03:52:44;3.53;;;2.20;;
49235;SDS011;35067;48.134;8.378;2022-12-07T03:55:36;4.57;;;2.30;;
49235;SDS011;35067;48.134;8.378;2022-12-07T03:57:44;4.03;;;2.40;;
49235;SDS011;35067;48.134;8.378;2022-12-07T03:59:49;3.53;;;2.40;;
49235;SDS011;35067;48.134;8.378;2022-12-07T04:01:53;2.87;;;2.53;;
49235;SDS011;35067;48.134;8.378;2022-12-07T04:03:57;3.90;;;2.40;;
49235;SDS011;35067;48.134;8.378;2022-12-07T04:05:57;3.70;;;2.67;;
49235;SDS011;35067;48.134;8.378;2022-12-07T04:07:59;5.27;;;2.77;;
49235;SDS011;35067;48.134;8.378;2022-12-07T04:10:00;3.33;;;2.50;;
49235;SDS011;35067;48.134;8.378;2022-12-07T04:12:00;4.97;;;3.07;;
49235;SDS011;35067;48.134;8.378;2022-12-07T04:14:01;3.97;;;3.00;;
49235;SDS011;35067;48.134;8.378;2022-12-07T04:16:20;3.77;;;3.03;;
49235;SDS011;35067;48.134;8.378;2022-12-07T04:18:20;3.90;;;3.10;;
49235;SDS011;35067;48.134;8.378;2022-12-07T04:20:21;4.40;;;2.83;;
49235;SDS011;35067;48.134;8.378;2022-12-07T04:22:22;4.40;;;3.07;;
49235;SDS011;35067;48.134;8.378;2022-12-07T04:24:23;4.17;;;2.77;;
49235;SDS011;35067;48.134;8.378;2022-12-07T04:26:24;4.73;;;2.80;;
49235;SDS011;35067;48.134;8.378;2022-12-07T04:28:25;4.77;;;3.23;;
49235;SDS011;35067;48.134;8.378;2022-12-07T04:30:26;3.87;;;2.77;;
49235;SDS011;35067;48.134;8.378;2022-12-07T04:32:26;5.63;;;3.40;;
49235;SDS011;35067;48.134;8.378;2022-12-07T04:34:27;6.73;;;3.43;;
49235;SDS011;35067;48.134;8.378;2022-12-07T04:36:28;5.07;;;3.00;;
49235;SDS011;35067;48.134;8.378;2022-12-07T04:38:28;7.17;;;2.87;;
49235;SDS011;35067;48.134;8.378;2022-12-07T04:40:29;5.37;;;3.47;;
49235;SDS011;35067;48.134;8.378;2022-12-07T04:42:30;5.60;;;3.70;;
49235;SDS011;35067;48.134;8.378;2022-12-07T04:44:30;5.47;;;3.50;;
49235;SDS011;35067;48.134;8.378;2022-12-07T04:46:31;6.73;;;4.20;;
49235;SDS011;35067;48.134;8.378;2022-12-07T04:48:32;9.53;;;4.27;;
49235;SDS011;35067;48.134;8.378;2022-12-07T04:50:33;5.33;;;3.77;;
49235;SDS011;35067;48.134;8.378;2022-12-07T04:52:35;6.90;;;4.40;;
49235;SDS011;35067;48.134;8.378;2022-12-07T04:54:36;7.37;;;4.73;;
49235;SDS011;35067;48.134;8.378;2022-12-07T04:56:36;6.93;;;3.93;;
49235;SDS011;35067;48.134;8.378;2022-12-07T04:58:37;7.27;;;4.90;;
49235;SDS011;35067;48.134;8.378;2022-12-07T05:00:38;7.50;;;5.40;;
49235;SDS011;35067;48.134;8.378;2022-12-07T05:02:39;6.37;;;4.03;;
49235;SDS011;35067;48.134;8.378;2022-12-07T05:04:40;6.37;;;4.23;;
49235;SDS011;35067;48.134;8.378;2022-12-07T05:06:41;5.93;;;3.70;;
49235;SDS011;35067;48.134;8.378;2022-12-07T05:08:42;5.63;;;3.77;;
49235;SDS011;35067;48.134;8.378;2022-12-07T05:10:44;7.70;;;4.50;;
49235;SDS011;35067;48.134;8.378;2022-12-07T05:12:44;5.10;;;3.67;;
49235;SDS011;35067;48.134;8.378;2022-12-07T05:14:45;5.67;;;4.00;;
49235;SDS011;35067;48.134;8.378;2022-12-07T05:16:47;7.83;;;4.80;;
49235;SDS011;35067;48.134;8.378;2022-12-07T05:18:50;7.43;;;4.40;;
49235;SDS011;35067;48.134;8.378;2022-12-07T05:20:51;5.20;;;3.50;;
49235;SDS011;35067;48.134;8.378;2022-12-07T05:22:52;5.40;;;3.77;;
49235;SDS011;35067;48.134;8.378;2022-12-07T05:24:52;9.17;;;5.03;;
49235;SDS011;35067;48.134;8.378;2022-12-07T05:26:54;5.33;;;3.47;;
49235;SDS011;35067;48.134;8.378;2022-12-07T05:28:55;6.33;;;3.83;;
49235;SDS011;35067;48.134;8.378;2022-12-07T05:30:56;6.87;;;3.87;;
49235;SDS011;35067;48.134;8.378;2022-12-07T05:32:57;7.87;;;4.80;;
49235;SDS011;35067;48.134;8.378;2022-12-07T05:34:58;5.63;;;3.73;;
49235;SDS011;35067;48.134;8.378;2022-12-07T05:36:59;6.33;;;4.23;;
49235;SDS011;35067;48.134;8.378;2022-12-07T05:38:59;6.20;;;4.07;;
49235;SDS011;35067;48.134;8.378;2022-12-07T05:41:01;7.33;;;4.37;;
49235;SDS011;35067;48.134;8.378;2022-12-07T05:43:03;7.40;;;5.13;;
49235;SDS011;35067;48.134;8.378;2022-12-07T05:45:04;8.07;;;4.80;;
49235;SDS011;35067;48.134;8.378;2022-12-07T05:47:05;6.53;;;4.23;;
49235;SDS011;35067;48.134;8.378;2022-12-07T05:49:06;7.97;;;5.23;;
49235;SDS011;35067;48.134;8.378;2022-12-07T05:51:06;9.63;;;5.63;;
49235;SDS011;35067;48.134;8.378;2022-12-07T05:53:07;8.77;;;5.80;;
49235;SDS011;35067;48.134;8.378;2022-12-07T05:55:08;9.73;;;5.30;;
49235;SDS011;35067;48.134;8.378;2022-12-07T05:57:09;9.70;;;5.57;;
49235;SDS011;35067;48.134;8.378;2022-12-07T05:59:09;6.87;;;4.50;;
49235;SDS011;35067;48.134;8.378;2022-12-07T06:01:22;8.57;;;4.90;;
49235;SDS011;35067;48.134;8.378;2022-12-07T06:03:23;7.63;;;4.83;;
49235;SDS011;35067;48.134;8.378;2022-12-07T06:05:23;7.23;;;4.97;;
49235;SDS011;35067;48.134;8.378;2022-12-07T06:07:24;7.47;;;4.43;;
49235;SDS011;35067;48.134;8.378;2022-12-07T06:09:25;8.27;;;4.47;;
49235;SDS011;35067;48.134;8.378;2022-12-07T06:11:27;7.70;;;4.00;;
49235;SDS011;35067;48.134;8.378;2022-12-07T06:13:47;6.97;;;3.67;;
49235;SDS011;35067;48.134;8.378;2022-12-07T06:15:47;6.83;;;4.17;;
49235;SDS011;35067;48.134;8.378;2022-12-07T06:17:48;7.00;;;3.90;;
49235;SDS011;35067;48.134;8.378;2022-12-07T06:19:49;8.33;;;4.83;;
49235;SDS011;35067;48.134;8.378;2022-12-07T06:21:50;7.80;;;4.70;;
49235;SDS011;35067;48.134;8.378;2022-12-07T06:23:51;9.70;;;4.33;;
49235;SDS011;35067;48.134;8.378;2022-12-07T06:25:52;7.60;;;4.27;;
49235;SDS011;35067;48.134;8.378;2022-12-07T06:27:53;6.77;;;3.77;;
49235;SDS011;35067;48.134;8.378;2022-12-07T06:29:55;8.17;;;4.60;;
49235;SDS011;35067;48.134;8.378;2022-12-07T06:31:56;7.30;;;5.07;;
49235;SDS011;35067;48.134;8.378;2022-12-07T06:34:00;6.30;;;3.97;;
49235;SDS011;35067;48.134;8.378;2022-12-07T06:36:04;12.13;;;5.07;;
49235;SDS011;35067;48.134;8.378;2022-12-07T06:38:05;8.20;;;4.83;;
49235;SDS011;35067;48.134;8.378;2022-12-07T06:40:06;9.37;;;4.93;;
49235;SDS011;35067;48.134;8.378;2022-12-07T06:42:07;6.87;;;4.53;;
49235;SDS011;35067;48.134;8.378;2022-12-07T06:44:08;9.50;;;6.30;;
49235;SDS011;35067;48.134;8.378;2022-12-07T06:46:08;9.97;;;5.27;;
49235;SDS011;35067;48.134;8.378;2022-12-07T06:48:09;9.13;;;5.87;;
49235;SDS011;35067;48.134;8.378;2022-12-07T06:50:10;10.33;;;5.17;;
49235;SDS011;35067;48.134;8.378;2022-12-07T06:52:10;9.63;;;5.43;;
49235;SDS011;35067;48.134;8.378;2022-12-07T06:54:11;8.80;;;5.13;;
49235;SDS011;35067;48.134;8.378;2022-12-07T06:56:14;8.60;;;5.23;;
49235;SDS011;35067;48.134;8.378;2022-12-07T06:58:15;11.93;;;5.57;;
49235;SDS011;35067;48.134;8.378;2022-12-07T07:00:17;10.23;;;5.43;;
49235;SDS011;35067;48.134;8.378;2022-12-07T07:02:18;10.83;;;5.23;;
49235;SDS011;35067;48.134;8.378;2022-12-07T07:04:18;9.30;;;5.17;;
49235;SDS011;35067;48.134;8.378;2022-12-07T07:06:19;9.07;;;5.03;;
49235;SDS011;35067;48.134;8.378;2022-12-07T07:08:20;9.13;;;4.63;;
49235;SDS011;35067;48.134;8.378;2022-12-07T07:10:20;7.23;;;4.07;;
49235;SDS011;35067;48.134;8.378;2022-12-07T07:12:21;10.63;;;4.53;;
49235;SDS011;35067;48.134;8.378;2022-12-07T07:14:22;9.30;;;4.30;;
49235;SDS011;35067;48.134;8.378;2022-12-07T07:16:23;7.70;;;4.63;;
49235;SDS011;35067;48.134;8.378;2022-12-07T07:18:24;7.80;;;4.20;;
49235;SDS011;35067;48.134;8.378;2022-12-07T07:20:25;8.10;;;4.20;;
49235;SDS011;35067;48.134;8.378;2022-12-07T07:22:26;8.03;;;4.50;;
49235;SDS011;35067;48.134;8.378;2022-12-07T07:24:27;7.83;;;4.00;;
49235;SDS011;35067;48.134;8.378;2022-12-07T07:26:27;8.03;;;4.10;;
49235;SDS011;35067;48.134;8.378;2022-12-07T07:28:28;7.47;;;3.83;;
49235;SDS011;35067;48.134;8.378;2022-12-07T07:30:29;10.80;;;5.53;;
49235;SDS011;35067;48.134;8.378;2022-12-07T07:32:29;12.10;;;7.00;;
49235;SDS011;35067;48.134;8.378;2022-12-07T07:34:30;14.37;;;7.07;;
49235;SDS011;35067;48.134;8.378;2022-12-07T07:36:31;10.50;;;5.70;;
49235;SDS011;35067;48.134;8.378;2022-12-07T07:38:32;8.93;;;5.57;;
49235;SDS011;35067;48.134;8.378;2022-12-07T07:40:33;10.67;;;5.60;;
49235;SDS011;35067;48.134;8.378;2022-12-07T07:42:34;11.27;;;5.40;;
49235;SDS011;35067;48.134;8.378;2022-12-07T07:44:35;9.70;;;4.97;;
49235;SDS011;35067;48.134;8.378;2022-12-07T07:46:35;10.87;;;5.13;;
49235;SDS011;35067;48.134;8.378;2022-12-07T07:48:36;8.00;;;3.83;;
49235;SDS011;35067;48.134;8.378;2022-12-07T07:50:37;6.93;;;3.73;;
49235;SDS011;35067;48.134;8.378;2022-12-07T07:52:37;8.17;;;4.23;;
49235;SDS011;35067;48.134;8.378;2022-12-07T07:54:39;7.40;;;3.60;;
49235;SDS011;35067;48.134;8.378;2022-12-07T07:56:39;5.77;;;3.60;;
49235;SDS011;35067;48.134;8.378;2022-12-07T07:58:40;7.40;;;4.50;;
49235;SDS011;35067;48.134;8.378;2022-12-07T08:00:41;9.87;;;5.37;;
49235;SDS011;35067;48.134;8.378;2022-12-07T08:02:41;9.77;;;5.77;;
49235;SDS011;35067;48.134;8.378;2022-12-07T08:04:43;12.10;;;6.43;;
49235;SDS011;35067;48.134;8.378;2022-12-07T08:06:44;13.83;;;7.30;;
49235;SDS011;35067;48.134;8.378;2022-12-07T08:08:46;9.80;;;5.77;;
49235;SDS011;35067;48.134;8.378;2022-12-07T08:10:47;13.20;;;7.17;;
49235;SDS011;35067;48.134;8.378;2022-12-07T08:12:47;11.50;;;5.97;;
49235;SDS011;35067;48.134;8.378;2022-12-07T08:15:07;12.73;;;6.47;;
49235;SDS011;35067;48.134;8.378;2022-12-07T08:17:08;12.43;;;6.13;;
49235;SDS011;35067;48.134;8.378;2022-12-07T08:19:08;8.53;;;4.63;;
49235;SDS011;35067;48.134;8.378;2022-12-07T08:21:11;7.57;;;3.97;;
49235;SDS011;35067;48.134;8.378;2022-12-07T08:23:14;6.77;;;4.30;;
49235;SDS011;35067;48.134;8.378;2022-12-07T08:25:14;7.53;;;4.53;;
49235;SDS011;35067;48.134;8.378;2022-12-07T08:27:15;8.77;;;4.57;;
49235;SDS011;35067;48.134;8.378;2022-12-07T08:29:16;8.00;;;4.10;;
49235;SDS011;35067;48.134;8.378;2022-12-07T08:31:17;7.30;;;4.10;;
49235;SDS011;35067;48.134;8.378;2022-12-07T08:33:18;6.43;;;3.87;;
49235;SDS011;35067;48.134;8.378;2022-12-07T08:35:22;6.50;;;3.73;;
49235;SDS011;35067;48.134;8.378;2022-12-07T08:37:24;6.87;;;4.33;;
49235;SDS011;35067;48.134;8.378;2022-12-07T08:39:24;5.47;;;3.17;;
49235;SDS011;35067;48.134;8.378;2022-12-07T08:41:25;5.67;;;3.93;;
49235;SDS011;35067;48.134;8.378;2022-12-07T08:43:26;4.57;;;3.10;;
49235;SDS011;35067;48.134;8.378;2022-12-07T08:45:26;5.27;;;3.47;;
49235;SDS011;35067;48.134;8.378;2022-12-07T08:47:27;4.83;;;3.33;;
49235;SDS011;35067;48.134;8.378;2022-12-07T08:49:36;12.53;;;3.53;;
49235;SDS011;35067;48.134;8.378;2022-12-07T08:51:41;4.80;;;2.73;;
49235;SDS011;35067;48.134;8.378;2022-12-07T08:53:42;4.77;;;3.47;;
49235;SDS011;35067;48.134;8.378;2022-12-07T08:55:45;2.83;;;2.10;;
49235;SDS011;35067;48.134;8.378;2022-12-07T08:57:47;4.23;;;2.83;;
49235;SDS011;35067;48.134;8.378;2022-12-07T08:59:47;4.27;;;2.70;;
49235;SDS011;35067;48.134;8.378;2022-12-07T09:01:48;5.17;;;2.90;;
49235;SDS011;35067;48.134;8.378;2022-12-07T09:03:49;2.93;;;2.10;;
49235;SDS011;35067;48.134;8.378;2022-12-07T09:05:49;2.50;;;2.20;;
49235;SDS011;35067;48.134;8.378;2022-12-07T09:07:51;3.30;;;2.40;;
49235;SDS011;35067;48.134;8.378;2022-12-07T09:09:57;3.10;;;2.33;;
49235;SDS011;35067;48.134;8.378;2022-12-07T09:11:58;2.50;;;2.00;;
49235;SDS011;35067;48.134;8.378;2022-12-07T09:13:59;3.60;;;2.57;;
49235;SDS011;35067;48.134;8.378;2022-12-07T09:15:59;3.03;;;2.10;;
49235;SDS011;35067;48.134;8.378;2022-12-07T09:18:00;2.87;;;2.10;;
49235;SDS011;35067;48.134;8.378;2022-12-07T09:20:02;3.13;;;2.23;;
49235;SDS011;35067;48.134;8.378;2022-12-07T09:22:05;4.13;;;2.57;;
49235;SDS011;35067;48.134;8.378;2022-12-07T09:24:06;3.13;;;2.10;;
49235;SDS011;35067;48.134;8.378;2022-12-07T09:26:07;4.47;;;2.20;;
49235;SDS011;35067;48.134;8.378;2022-12-07T09:28:07;2.57;;;2.07;;
49235;SDS011;35067;48.134;8.378;2022-12-07T09:30:08;2.60;;;1.83;;
49235;SDS011;35067;48.134;8.378;2022-12-07T09:32:09;2.57;;;2.00;;
49235;SDS011;35067;48.134;8.378;2022-12-07T09:34:10;2.47;;;2.10;;
49235;SDS011;35067;48.134;8.378;2022-12-07T09:36:11;2.37;;;2.10;;
49235;SDS011;35067;48.134;8.378;2022-12-07T09:38:11;2.90;;;2.23;;
49235;SDS011;35067;48.134;8.378;2022-12-07T09:40:13;2.50;;;2.27;;
49235;SDS011;35067;48.134;8.378;2022-12-07T09:42:19;2.63;;;2.23;;
49235;SDS011;35067;48.134;8.378;2022-12-07T09:44:30;3.93;;;2.50;;
49235;SDS011;35067;48.134;8.378;2022-12-07T09:46:33;2.70;;;2.00;;
49235;SDS011;35067;48.134;8.378;2022-12-07T09:48:39;2.13;;;1.77;;
49235;SDS011;35067;48.134;8.378;2022-12-07T09:50:40;4.13;;;1.90;;
49235;SDS011;35067;48.134;8.378;2022-12-07T09:52:41;2.70;;;2.00;;
49235;SDS011;35067;48.134;8.378;2022-12-07T09:54:46;3.07;;;1.73;;
49235;SDS011;35067;48.134;8.378;2022-12-07T09:56:49;2.27;;;1.80;;
49235;SDS011;35067;48.134;8.378;2022-12-07T09:58:51;3.23;;;2.37;;
49235;SDS011;35067;48.134;8.378;2022-12-07T10:01:05;2.27;;;1.87;;
49235;SDS011;35067;48.134;8.378;2022-12-07T10:03:09;2.77;;;2.00;;
49235;SDS011;35067;48.134;8.378;2022-12-07T10:05:16;2.20;;;1.80;;
49235;SDS011;35067;48.134;8.378;2022-12-07T10:07:21;2.20;;;2.00;;
49235;SDS011;35067;48.134;8.378;2022-12-07T10:09:21;2.50;;;2.00;;
49235;SDS011;35067;48.134;8.378;2022-12-07T10:11:22;3.03;;;2.00;;
49235;SDS011;35067;48.134;8.378;2022-12-07T10:13:36;2.50;;;2.00;;
49235;SDS011;35067;48.134;8.378;2022-12-07T10:15:53;2.43;;;1.90;;
49235;SDS011;35067;48.134;8.378;2022-12-07T10:17:56;3.73;;;2.30;;
49235;SDS011;35067;48.134;8.378;2022-12-07T10:20:20;3.17;;;2.30;;
49235;SDS011;35067;48.134;8.378;2022-12-07T10:22:26;2.33;;;2.10;;
49235;SDS011;35067;48.134;8.378;2022-12-07T10:24:27;3.37;;;2.23;;
49235;SDS011;35067;48.134;8.378;2022-12-07T10:28:46;3.17;;;2.20;;
49235;SDS011;35067;48.134;8.378;2022-12-07T10:30:59;2.03;;;1.73;;
49235;SDS011;35067;48.134;8.378;2022-12-07T10:35:42;3.10;;;2.10;;
49235;SDS011;35067;48.134;8.378;2022-12-07T10:37:43;3.17;;;1.90;;
49235;SDS011;35067;48.134;8.378;2022-12-07T10:39:46;3.37;;;2.00;;
49235;SDS011;35067;48.134;8.378;2022-12-07T10:42:01;3.60;;;2.00;;
49235;SDS011;35067;48.134;8.378;2022-12-07T10:44:03;2.10;;;1.90;;
49235;SDS011;35067;48.134;8.378;2022-12-07T10:46:19;1.80;;;1.60;;
49235;SDS011;35067;48.134;8.378;2022-12-07T11:00:15;1.73;;;1.50;;
49235;SDS011;35067;48.134;8.378;2022-12-07T11:02:34;1.57;;;1.40;;
49235;SDS011;35067;48.134;8.378;2022-12-07T11:05:10;2.13;;;1.67;;
49235;SDS011;35067;48.134;8.378;2022-12-07T11:10:12;1.40;;;1.20;;
49235;SDS011;35067;48.134;8.378;2022-12-07T11:14:56;1.57;;;1.20;;
49235;SDS011;35067;48.134;8.378;2022-12-07T11:17:09;1.40;;;1.30;;
49235;SDS011;35067;48.134;8.378;2022-12-07T11:19:27;2.17;;;1.40;;
49235;SDS011;35067;48.134;8.378;2022-12-07T11:24:50;1.40;;;1.30;;
49235;SDS011;35067;48.134;8.378;2022-12-07T11:32:23;2.27;;;1.40;;
49235;SDS011;35067;48.134;8.378;2022-12-07T11:37:09;1.80;;;1.50;;
49235;SDS011;35067;48.134;8.378;2022-12-07T11:41:17;1.27;;;1.17;;
49235;SDS011;35067;48.134;8.378;2022-12-07T11:43:32;1.23;;;1.10;;
49235;SDS011;35067;48.134;8.378;2022-12-07T11:45:35;2.33;;;1.60;;
49235;SDS011;35067;48.134;8.378;2022-12-07T11:49:54;1.67;;;1.43;;
49235;SDS011;35067;48.134;8.378;2022-12-07T11:52:22;1.93;;;1.50;;
49235;SDS011;35067;48.134;8.378;2022-12-07T11:54:34;1.80;;;1.33;;
49235;SDS011;35067;48.134;8.378;2022-12-07T11:56:40;2.40;;;1.60;;
49235;SDS011;35067;48.134;8.378;2022-12-07T11:58:53;1.73;;;1.30;;
49235;SDS011;35067;48.134;8.378;2022-12-07T12:03:19;1.40;;;1.30;;
49235;SDS011;35067;48.134;8.378;2022-12-07T12:05:31;1.83;;;1.30;;
49235;SDS011;35067;48.134;8.378;2022-12-07T12:07:32;1.83;;;1.60;;
49235;SDS011;35067;48.134;8.378;2022-12-07T12:09:35;1.40;;;1.20;;
49235;SDS011;35067;48.134;8.378;2022-12-07T12:12:15;1.80;;;1.33;;
49235;SDS011;35067;48.134;8.378;2022-12-07T12:19:32;1.90;;;1.50;;
49235;SDS011;35067;48.134;8.378;2022-12-07T12:21:41;1.77;;;1.50;;
49235;SDS011;35067;48.134;8.378;2022-12-07T12:25:55;1.87;;;1.60;;
49235;SDS011;35067;48.134;8.378;2022-12-07T12:28:00;2.30;;;1.60;;
49235;SDS011;35067;48.134;8.378;2022-12-07T12:30:02;1.40;;;1.30;;
49235;SDS011;35067;48.134;8.378;2022-12-07T12:32:43;1.73;;;1.50;;
49235;SDS011;35067;48.134;8.378;2022-12-07T12:36:48;1.63;;;1.53;;
49235;SDS011;35067;48.134;8.378;2022-12-07T12:40:59;2.10;;;1.60;;
49235;SDS011;35067;48.134;8.378;2022-12-07T12:43:02;1.80;;;1.50;;
49235;SDS011;35067;48.134;8.378;2022-12-07T12:45:48;3.03;;;1.67;;
49235;SDS011;35067;48.134;8.378;2022-12-07T12:50:11;1.87;;;1.60;;
49235;SDS011;35067;48.134;8.378;2022-12-07T12:52:45;2.43;;;1.40;;
49235;SDS011;35067;48.134;8.378;2022-12-07T12:57:11;2.07;;;1.67;;
49235;SDS011;35067;48.134;8.378;2022-12-07T12:59:28;1.90;;;1.47;;
49235;SDS011;35067;48.134;8.378;2022-12-07T13:01:41;1.90;;;1.70;;
49235;SDS011;35067;48.134;8.378;2022-12-07T13:03:53;1.47;;;1.30;;
49235;SDS011;35067;48.134;8.378;2022-12-07T13:08:22;1.93;;;1.50;;
49235;SDS011;35067;48.134;8.378;2022-12-07T13:12:31;2.00;;;1.60;;
49235;SDS011;35067;48.134;8.378;2022-12-07T13:14:37;2.17;;;1.47;;
49235;SDS011;35067;48.134;8.378;2022-12-07T13:16:42;2.13;;;1.60;;
49235;SDS011;35067;48.134;8.378;2022-12-07T13:18:42;2.13;;;1.87;;
49235;SDS011;35067;48.134;8.378;2022-12-07T13:21:44;3.23;;;1.90;;
49235;SDS011;35067;48.134;8.378;2022-12-07T13:23:14;1.93;;;1.40;;
49235;SDS011;35067;48.134;8.378;2022-12-07T13:25:30;2.03;;;1.83;;
49235;SDS011;35067;48.134;8.378;2022-12-07T13:27:39;2.17;;;1.30;;
49235;SDS011;35067;48.134;8.378;2022-12-07T13:29:41;1.97;;;1.40;;
49235;SDS011;35067;48.134;8.378;2022-12-07T13:31:50;1.50;;;1.27;;
49235;SDS011;35067;48.134;8.378;2022-12-07T13:33:55;1.57;;;1.30;;
49235;SDS011;35067;48.134;8.378;2022-12-07T13:35:56;1.57;;;1.30;;
49235;SDS011;35067;48.134;8.378;2022-12-07T13:38:05;1.87;;;1.50;;
49235;SDS011;35067;48.134;8.378;2022-12-07T13:40:21;1.87;;;1.37;;
49235;SDS011;35067;48.134;8.378;2022-12-07T13:44:33;2.20;;;1.43;;
49235;SDS011;35067;48.134;8.378;2022-12-07T13:46:42;1.70;;;1.40;;
49235;SDS011;35067;48.134;8.378;2022-12-07T13:49:59;1.40;;;1.17;;
49235;SDS011;35067;48.134;8.378;2022-12-07T13:51:49;1.30;;;1.10;;
49235;SDS011;35067;48.134;8.378;2022-12-07T13:53:53;2.00;;;1.70;;
49235;SDS011;35067;48.134;8.378;2022-12-07T13:55:57;2.53;;;1.97;;
49235;SDS011;35067;48.134;8.378;2022-12-07T13:57:59;1.73;;;1.60;;
49235;SDS011;35067;48.134;8.378;2022-12-07T14:00:01;1.57;;;1.33;;
49235;SDS011;35067;48.134;8.378;2022-12-07T14:02:26;1.77;;;1.27;;
49235;SDS011;35067;48.134;8.378;2022-12-07T14:04:31;1.67;;;1.20;;
49235;SDS011;35067;48.134;8.378;2022-12-07T14:06:36;2.60;;;1.30;;